Time;durP1;ratioP1;P1;durP2;ratioP2;P2;SDS_P1;SDS_P2;PMS_P1;PMS_P2;Temp;Humidity;BMP_temperature;BMP_pressure;BME280_temperature;BME280_humidity;BME280_pressure;Samples;Min_cycle;Max_cycle;Signal;HPM_P1;HPM_P2
2023/03/04 00:00:54;;;;;;;;;51.25;39.75;;;;;5.57;56.59;101944.34;4993985;28;45788;-60
2023/03/04 00:03:19;;;;;;;;;53.75;43.75;;;;;5.85;56.69;101985.25;4978649;28;45644;-61
2023/03/04 00:05:46;;;;;;;;;51.25;43.00;;;;;5.60;56.33;101954.94;4995337;28;45833;-60
2023/03/04 00:08:11;;;;;;;;;63.75;43.75;;;;;5.84;56.97;101983.53;4996160;28;45413;-60
2023/03/04 00:10:37;;;;;;;;;54.75;41.75;;;;;5.66;57.61;101975.28;4996009;28;45814;-62
2023/03/04 00:13:02;;;;;;;;;59.00;45.25;;;;;5.70;56.87;101987.59;4982368;28;45592;-62
2023/03/04 00:15:28;;;;;;;;;56.00;44.50;;;;;5.39;56.76;101944.28;5010118;28;47919;-63
2023/03/04 00:17:54;;;;;;;;;50.75;41.75;;;;;5.75;57.02;101998.91;5011071;28;45736;-60
2023/03/04 00:20:20;;;;;;;;;66.75;49.00;;;;;5.57;57.42;101977.03;4979397;28;45398;-61
2023/03/04 00:22:45;;;;;;;;;58.50;44.00;;;;;5.62;57.71;101985.63;4995823;28;45803;-61
2023/03/04 00:25:11;;;;;;;;;60.25;45.50;;;;;5.55;57.30;101985.34;4977631;28;46493;-61
2023/03/04 00:27:36;;;;;;;;;53.25;43.50;;;;;5.53;57.07;101987.38;4967924;28;45433;-61
2023/03/04 00:30:03;;;;;;;;;52.25;42.75;;;;;5.61;57.28;101994.78;4957742;28;45345;-55
2023/03/04 00:32:28;;;;;;;;;59.75;45.00;;;;;5.62;56.76;101993.78;4996594;28;45517;-59
2023/03/04 00:34:54;;;;;;;;;61.75;45.75;;;;;5.66;57.62;102005.25;4995249;28;45550;-56
2023/03/04 00:37:20;;;;;;;;;51.75;45.00;;;;;5.35;57.96;101951.00;4996734;28;45456;-56
2023/03/04 00:39:45;;;;;;;;;58.75;46.00;;;;;5.56;57.87;102002.56;4977564;28;45426;-59
2023/03/04 00:42:11;;;;;;;;;52.75;43.00;;;;;5.42;58.42;102002.03;4979166;28;45574;-58
2023/03/04 00:44:37;;;;;;;;;53.00;45.50;;;;;5.49;57.74;102002.28;4996509;28;45763;-60
2023/03/04 00:47:02;;;;;;;;;59.75;45.00;;;;;5.27;57.83;101963.50;4996331;28;45398;-59
2023/03/04 00:49:28;;;;;;;;;54.50;42.25;;;;;5.50;58.65;102006.72;4996841;28;45456;-58
2023/03/04 00:51:53;;;;;;;;;53.50;46.00;;;;;5.54;57.63;102005.41;4996981;28;45476;-57
2023/03/04 00:54:19;;;;;;;;;57.75;45.25;;;;;5.53;57.14;102003.72;4996591;28;45269;-58
2023/03/04 00:56:44;;;;;;;;;53.25;42.25;;;;;5.51;58.48;102005.69;4978623;28;45221;-58
2023/03/04 00:59:10;;;;;;;;;62.25;47.00;;;;;5.47;57.94;101997.97;4996334;28;45229;-60
2023/03/04 01:01:35;;;;;;;;;56.00;46.00;;;;;5.45;57.66;102003.59;4996876;28;45209;-61
2023/03/04 01:04:01;;;;;;;;;62.75;49.25;;;;;5.55;57.75;102011.75;4996169;28;46473;-60
2023/03/04 01:06:26;;;;;;;;;60.75;45.75;;;;;5.52;57.21;102010.16;4996581;28;45292;-59
2023/03/04 01:08:52;;;;;;;;;54.75;44.25;;;;;5.52;57.89;102014.75;4996569;28;45269;-57
2023/03/04 01:11:18;;;;;;;;;61.00;47.00;;;;;5.50;58.39;102014.03;4996532;28;45418;-58
2023/03/04 01:13:43;;;;;;;;;52.00;46.25;;;;;5.47;57.70;102003.41;4996044;28;46339;-58
2023/03/04 01:16:09;;;;;;;;;62.50;50.25;;;;;5.46;58.59;102012.59;4995666;28;45387;-58
2023/03/04 01:18:35;;;;;;;;;65.25;47.25;;;;;5.41;58.67;102010.31;4996599;28;45502;-58
2023/03/04 01:21:01;;;;;;;;;64.00;49.50;;;;;5.35;58.53;102009.06;4978334;28;45980;-59
2023/03/04 01:23:26;;;;;;;;;60.25;46.50;;;;;5.41;58.63;102011.16;4995585;28;45382;-60
2023/03/04 01:25:52;;;;;;;;;56.00;39.75;;;;;5.41;58.60;102007.59;4996104;28;45416;-61
2023/03/04 01:28:17;;;;;;;;;59.50;45.50;;;;;5.42;57.93;102007.47;4990502;28;45323;-58
2023/03/04 01:30:43;;;;;;;;;60.25;48.25;;;;;5.44;58.63;102004.56;4996158;28;45374;-57
2023/03/04 01:33:09;;;;;;;;;58.75;47.00;;;;;5.22;57.92;101960.34;4969669;28;48170;-57
2023/03/04 01:35:34;;;;;;;;;65.75;48.00;;;;;5.47;58.13;101998.84;4995753;28;45437;-58
2023/03/04 01:38:00;;;;;;;;;61.00;47.25;;;;;5.37;58.26;101998.88;4995909;28;45367;-57
2023/03/04 01:40:25;;;;;;;;;63.50;48.25;;;;;5.42;58.26;101995.69;4977694;28;45425;-56
2023/03/04 01:42:51;;;;;;;;;62.00;47.25;;;;;5.31;58.80;101983.13;4994131;28;48617;-58
2023/03/04 01:45:17;;;;;;;;;73.00;52.50;;;;;5.40;57.87;101995.00;4995483;28;45379;-59
2023/03/04 01:47:47;;;;;;;;;67.25;49.75;;;;;5.43;58.34;101992.84;4977884;28;45469;-58
2023/03/04 01:50:35;;;;;;;;;66.75;51.00;;;;;5.27;58.04;101971.66;4994329;28;45438;-56
2023/03/04 01:53:02;;;;;;;;;58.00;45.75;;;;;5.30;58.39;101965.06;4979932;28;46869;-57
2023/03/04 01:55:28;;;;;;;;;61.25;48.50;;;;;5.37;58.76;101987.09;4995473;28;45230;-60
2023/03/04 01:57:53;;;;;;;;;62.25;48.00;;;;;5.18;58.14;101956.19;4995362;28;45254;-58
2023/03/04 02:00:38;;;;;;;;;65.50;49.75;;;;;5.26;58.04;101978.13;4995766;28;45343;-59
2023/03/04 02:03:06;;;;;;;;;68.50;52.50;;;;;5.20;58.17;101969.66;4995859;28;45878;-58
2023/03/04 02:05:32;;;;;;;;;65.25;50.50;;;;;5.26;59.01;101974.53;4962274;28;45520;-59
2023/03/04 02:07:57;;;;;;;;;64.50;49.25;;;;;5.31;57.86;101977.69;4977132;28;45447;-59
2023/03/04 02:10:23;;;;;;;;;63.00;49.25;;;;;5.16;58.62;101947.31;4994013;28;45440;-57
2023/03/04 02:12:49;;;;;;;;;67.00;52.00;;;;;5.27;59.09;101974.38;4977442;28;45682;-57
2023/03/04 02:15:15;;;;;;;;;64.75;50.50;;;;;5.01;58.87;101945.06;4995440;28;45459;-56
2023/03/04 02:17:40;;;;;;;;;64.25;48.50;;;;;5.20;59.71;101972.38;4977802;28;45357;-56
2023/03/04 02:20:09;;;;;;;;;67.50;48.25;;;;;5.00;58.72;101937.91;4978017;28;45563;-60
2023/03/04 02:22:37;;;;;;;;;63.75;50.00;;;;;5.27;58.20;101981.69;4977245;28;47399;-59
2023/03/04 02:25:06;;;;;;;;;73.67;53.33;;;;;5.15;59.11;101981.00;4961292;28;45368;-58
2023/03/04 02:27:31;;;;;;;;;64.33;50.00;;;;;5.20;59.46;101980.56;4977341;28;45276;-58
2023/03/04 02:29:57;;;;;;;;;70.33;50.00;;;;;5.17;58.41;101973.53;4995532;28;46178;-56
2023/03/04 02:32:22;;;;;;;;;61.75;48.00;;;;;5.22;58.42;101971.25;4977194;28;45579;-58
2023/03/04 02:34:48;;;;;;;;;68.50;51.75;;;;;4.91;58.35;101946.91;4994984;28;45332;-59
2023/03/04 02:37:14;;;;;;;;;61.50;48.00;;;;;5.00;58.90;101943.34;4995099;28;45439;-57
2023/03/04 02:39:44;;;;;;;;;58.50;47.50;;;;;5.10;58.91;101964.22;4972382;28;45509;-58
2023/03/04 02:42:09;;;;;;;;;67.25;51.75;;;;;5.10;58.67;101964.22;4994651;28;46037;-59
2023/03/04 02:44:39;;;;;;;;;70.25;50.25;;;;;5.11;59.01;101968.66;4994267;28;45357;-58
2023/03/04 02:47:07;;;;;;;;;63.00;44.25;;;;;5.07;59.62;101975.44;4977324;28;45451;-56
2023/03/04 02:49:33;;;;;;;;;70.67;53.00;;;;;5.00;59.46;101964.25;4977823;28;45641;-59
2023/03/04 02:52:02;;;;;;;;;65.00;46.50;;;;;5.05;58.89;101972.84;4994265;28;46064;-59
2023/03/04 02:54:28;;;;;;;;;61.75;45.75;;;;;5.06;58.92;101973.72;4995037;28;45352;-58
2023/03/04 02:56:57;;;;;;;;;64.25;49.25;;;;;4.96;59.76;101954.69;4994895;28;45332;-59
2023/03/04 02:59:23;;;;;;;;;57.75;46.25;;;;;4.81;59.80;101922.44;4994971;28;45354;-59
2023/03/04 03:01:49;;;;;;;;;66.00;48.33;;;;;5.00;59.31;101965.13;4994135;28;45519;-57
2023/03/04 03:04:14;;;;;;;;;64.25;48.00;;;;;5.05;59.20;101961.09;4976185;28;45737;-59
2023/03/04 03:06:40;;;;;;;;;60.50;46.00;;;;;5.02;59.28;101956.81;4994572;28;45284;-60
2023/03/04 03:09:05;;;;;;;;;63.00;47.50;;;;;4.97;59.06;101946.34;4977027;28;45555;-59
2023/03/04 03:11:31;;;;;;;;;60.75;47.50;;;;;5.00;59.99;101948.78;4976828;28;46629;-60
2023/03/04 03:13:56;;;;;;;;;57.25;47.00;;;;;4.94;60.18;101940.34;4992736;28;45344;-58
2023/03/04 03:16:22;;;;;;;;;58.75;43.75;;;;;4.98;59.58;101952.66;4994183;28;45325;-58
2023/03/04 03:18:48;;;;;;;;;61.75;48.00;;;;;4.68;60.16;101909.16;4976989;28;45369;-59
2023/03/04 03:21:13;;;;;;;;;70.25;48.75;;;;;4.96;59.60;101947.34;4976377;28;46183;-58
2023/03/04 03:23:39;;;;;;;;;62.50;50.75;;;;;4.97;60.13;101948.22;4992814;28;45526;-56
2023/03/04 03:26:04;;;;;;;;;60.50;48.00;;;;;4.97;59.09;101946.34;4994117;28;45386;-59
2023/03/04 03:28:30;;;;;;;;;63.00;51.33;;;;;4.96;59.94;101941.06;4976930;28;45509;-59
2023/03/04 03:30:55;;;;;;;;;62.00;47.50;;;;;4.96;59.57;101949.22;4976348;28;46141;-59
2023/03/04 03:33:21;;;;;;;;;65.50;52.00;;;;;4.96;58.79;101947.34;4993743;28;45477;-58
2023/03/04 03:35:46;;;;;;;;;57.50;46.50;;;;;4.95;59.61;101956.53;4976406;28;45403;-62
2023/03/04 03:38:12;;;;;;;;;67.25;51.00;;;;;4.85;59.75;101940.22;4994377;28;46009;-58
2023/03/04 03:40:37;;;;;;;;;61.50;48.75;;;;;4.92;59.01;101950.50;4959895;28;48474;-60
2023/03/04 03:43:03;;;;;;;;;67.33;54.33;;;;;4.96;58.88;101950.06;4988028;28;45610;-54
2023/03/04 03:45:29;;;;;;;;;71.75;51.50;;;;;4.88;59.52;101944.50;4992730;28;45442;-58
2023/03/04 03:47:54;;;;;;;;;60.25;49.25;;;;;4.86;59.00;101958.25;4971218;28;45617;-55
2023/03/04 03:50:20;;;;;;;;;66.00;51.25;;;;;4.83;59.17;101954.97;4993986;28;45359;-58
2023/03/04 03:52:45;;;;;;;;;63.00;48.25;;;;;4.85;59.71;101956.53;4976156;28;45483;-57
2023/03/04 03:55:11;;;;;;;;;61.75;46.75;;;;;4.83;59.77;101957.69;4976653;28;45331;-58
2023/03/04 03:57:36;;;;;;;;;70.25;51.50;;;;;4.55;58.81;101912.19;4993966;28;45269;-55
2023/03/04 04:00:03;;;;;;;;;74.25;53.00;;;;;4.80;59.24;101956.09;4976293;28;45419;-58
2023/03/04 04:02:29;;;;;;;;;63.25;49.50;;;;;4.82;59.59;101964.13;4976010;28;45352;-58
2023/03/04 04:04:54;;;;;;;;;65.75;49.25;;;;;4.49;59.68;101926.34;4993875;28;45352;-59
2023/03/04 04:07:20;;;;;;;;;70.00;49.00;;;;;4.47;59.76;101934.63;4975970;28;45365;-59
2023/03/04 04:09:46;;;;;;;;;61.75;46.50;;;;;4.57;59.92;101958.25;4976078;28;46284;-58
2023/03/04 04:12:16;;;;;;;;;55.25;43.25;;;;;4.56;60.17;101972.84;4993209;28;45512;-58
2023/03/04 04:14:42;;;;;;;;;68.25;49.75;;;;;4.27;60.13;101916.59;4962192;28;45363;-60
2023/03/04 04:17:07;;;;;;;;;56.00;44.75;;;;;4.58;59.67;101966.28;4997612;28;45677;-59
2023/03/04 04:19:33;;;;;;;;;55.00;43.50;;;;;4.57;60.49;101956.41;4997189;28;45671;-59
2023/03/04 04:21:58;;;;;;;;;60.75;45.50;;;;;4.69;59.39;101973.44;4996885;28;45212;-57
2023/03/04 04:24:24;;;;;;;;;62.25;48.00;;;;;4.64;59.96;101969.44;4979518;28;45349;-60
2023/03/04 04:26:49;;;;;;;;;64.25;50.25;;;;;4.69;59.54;101980.75;4995713;28;45661;-57
2023/03/04 04:29:15;;;;;;;;;64.25;47.25;;;;;4.71;58.96;101981.44;4997015;28;46712;-58
2023/03/04 04:31:40;;;;;;;;;60.25;44.00;;;;;4.66;59.07;101967.41;4996926;28;45346;-57
2023/03/04 04:34:06;;;;;;;;;60.50;44.75;;;;;4.69;59.69;101980.75;5012463;28;45556;-57
2023/03/04 04:36:31;;;;;;;;;55.00;45.75;;;;;4.73;59.58;101977.59;4995544;28;45549;-57
2023/03/04 04:38:57;;;;;;;;;60.50;44.00;;;;;4.70;59.29;101977.84;4995442;28;47347;-58
2023/03/04 04:41:25;;;;;;;;;60.00;46.25;;;;;4.57;59.46;101958.25;4995472;28;45947;-56
2023/03/04 04:43:50;;;;;;;;;64.25;52.75;;;;;4.69;59.41;101973.44;4996912;28;45346;-57
2023/03/04 04:46:16;;;;;;;;;55.50;43.50;;;;;4.18;59.05;101894.69;4996908;28;45631;-58
2023/03/04 04:48:41;;;;;;;;;59.25;44.00;;;;;4.73;58.83;101976.72;4996358;28;46475;-58
2023/03/04 04:51:07;;;;;;;;;52.25;43.25;;;;;4.74;59.05;101987.47;4995563;28;45305;-59
2023/03/04 04:53:33;;;;;;;;;57.50;43.50;;;;;4.71;58.49;101981.44;4995559;28;45320;-60
2023/03/04 04:55:59;;;;;;;;;60.50;44.50;;;;;4.74;58.64;101992.03;4996836;28;45524;-59
2023/03/04 04:58:24;;;;;;;;;57.50;44.25;;;;;4.45;58.89;101958.41;4995145;28;45559;-58
2023/03/04 05:00:50;;;;;;;;;56.25;44.00;;;;;4.60;58.84;101986.00;4996204;28;45460;-58
2023/03/04 05:03:15;;;;;;;;;54.50;45.00;;;;;4.70;58.38;102005.06;4996405;28;45349;-58
2023/03/04 05:05:41;;;;;;;;;59.25;44.25;;;;;4.69;58.82;101997.91;4996728;28;45278;-58
2023/03/04 05:08:06;;;;;;;;;57.00;44.25;;;;;4.67;58.78;101999.03;4994905;28;45496;-59
2023/03/04 05:10:32;;;;;;;;;55.75;44.50;;;;;4.56;59.05;101986.44;5011496;28;45258;-56
2023/03/04 05:12:58;;;;;;;;;62.00;44.75;;;;;4.62;58.14;101999.47;4994706;28;45450;-59
2023/03/04 05:15:23;;;;;;;;;61.50;47.25;;;;;4.64;58.31;102005.63;4974763;28;45651;-60
2023/03/04 05:17:49;;;;;;;;;53.75;44.25;;;;;4.63;58.45;102008.50;4967414;28;46064;-57
2023/03/04 05:20:14;;;;;;;;;60.75;47.25;;;;;4.54;57.97;102005.63;4992969;28;45283;-56
2023/03/04 05:22:40;;;;;;;;;58.75;49.00;;;;;4.57;59.14;102015.34;4995816;28;45236;-57
2023/03/04 05:25:06;;;;;;;;;60.75;48.25;;;;;4.38;57.94;101983.56;4995543;28;45515;-57
2023/03/04 05:27:31;;;;;;;;;54.25;45.75;;;;;4.58;58.56;102009.78;4995099;28;46177;-57
2023/03/04 05:30:00;;;;;;;;;52.00;44.25;;;;;4.59;58.53;102014.22;4995244;28;45273;-58
2023/03/04 05:32:26;;;;;;;;;61.50;45.50;;;;;4.30;58.27;101976.97;4978568;28;45824;-59
2023/03/04 05:34:51;;;;;;;;;52.25;44.00;;;;;4.41;58.38;102016.78;4995657;28;45437;-57
2023/03/04 05:37:17;;;;;;;;;56.00;43.50;;;;;4.40;59.41;102015.06;4995112;28;45461;-58
2023/03/04 05:39:42;;;;;;;;;55.50;44.25;;;;;4.34;58.52;102012.88;4996006;28;45489;-56
2023/03/04 05:42:08;;;;;;;;;58.25;44.50;;;;;4.31;59.04;102018.59;4977876;28;45476;-56
2023/03/04 05:44:33;;;;;;;;;59.25;49.00;;;;;4.27;59.02;101996.25;4978451;28;45345;-58
2023/03/04 05:46:59;;;;;;;;;51.25;43.00;;;;;4.28;59.12;101999.84;4977607;28;47126;-59
2023/03/04 05:49:24;;;;;;;;;61.25;46.75;;;;;4.25;59.02;102014.56;4995784;28;45401;-58
2023/03/04 05:51:50;;;;;;;;;58.50;47.75;;;;;4.27;58.73;102007.13;4996054;28;45336;-58
2023/03/04 05:54:15;;;;;;;;;58.00;46.50;;;;;4.30;59.05;102011.44;4995701;28;45321;-58
2023/03/04 05:56:41;;;;;;;;;46.50;41.00;;;;;4.26;58.77;102005.41;4961615;28;47517;-58
2023/03/04 05:59:06;;;;;;;;;52.25;44.25;;;;;4.24;58.45;102004.72;4977662;28;45448;-56
2023/03/04 06:01:32;;;;;;;;;62.00;44.00;;;;;4.10;58.64;101976.06;4996603;28;45344;-58
2023/03/04 06:03:57;;;;;;;;;63.50;44.50;;;;;4.42;58.16;102014.88;4997087;28;45572;-58
2023/03/04 06:06:23;;;;;;;;;60.25;44.75;;;;;4.46;57.60;102011.78;4997885;28;45591;-57
2023/03/04 06:08:48;;;;;;;;;61.25;45.00;;;;;4.34;58.12;102005.56;4997797;28;45401;-59
2023/03/04 06:11:14;;;;;;;;;56.75;45.00;;;;;4.48;58.30;102023.38;4996463;28;45376;-58
2023/03/04 06:13:39;;;;;;;;;48.50;41.50;;;;;4.48;58.47;102022.50;4995820;28;45503;-59
2023/03/04 06:16:05;;;;;;;;;42.75;40.25;;;;;4.50;58.03;102027.78;4977960;28;45398;-58
2023/03/04 06:18:31;;;;;;;;;55.50;44.00;;;;;4.50;57.63;102019.63;4977757;28;45359;-59
2023/03/04 06:20:57;;;;;;;;;73.00;52.50;;;;;4.52;58.20;102017.63;4977767;28;45380;-58
2023/03/04 06:23:23;;;;;;;;;53.25;43.00;;;;;4.57;58.03;102035.25;4995453;28;45327;-59
2023/03/04 06:25:51;;;;;;;;;47.75;40.25;;;;;4.61;57.38;102025.81;4995498;28;45939;-56
2023/03/04 06:28:17;;;;;;;;;61.25;44.50;;;;;4.31;57.13;101981.41;4994907;28;45323;-58
2023/03/04 06:30:42;;;;;;;;;60.75;45.00;;;;;4.61;57.87;102033.13;5010400;28;45307;-59
2023/03/04 06:33:08;;;;;;;;;57.00;43.75;;;;;4.55;58.33;102037.28;4995348;28;45216;-56
2023/03/04 06:35:33;;;;;;;;;57.50;44.50;;;;;4.51;58.24;102035.81;4994923;28;45859;-57
2023/03/04 06:37:59;;;;;;;;;52.25;43.25;;;;;4.59;57.73;102037.84;4993657;28;45396;-57
2023/03/04 06:40:24;;;;;;;;;44.50;41.25;;;;;4.60;57.34;102032.25;4994006;28;45617;-57
2023/03/04 06:42:50;;;;;;;;;53.00;43.50;;;;;4.56;57.26;102033.53;4995293;28;45357;-61
2023/03/04 06:45:15;;;;;;;;;47.75;41.75;;;;;4.69;57.24;102046.03;4993381;28;45941;-57
2023/03/04 06:47:41;;;;;;;;;43.25;42.00;;;;;4.73;56.91;102045.59;4994943;28;45350;-58
2023/03/04 06:50:08;;;;;;;;;53.25;41.75;;;;;4.78;56.95;102050.59;4995652;28;45380;-57
2023/03/04 06:52:33;;;;;;;;;55.00;42.75;;;;;4.83;56.92;102058.34;4995797;28;45407;-57
2023/03/04 06:54:59;;;;;;;;;45.75;41.50;;;;;4.83;56.83;102061.06;4993647;28;47022;-58
2023/03/04 06:57:24;;;;;;;;;56.25;42.50;;;;;4.77;57.68;102057.06;4994986;28;45477;-58
2023/03/04 06:59:50;;;;;;;;;49.75;37.25;;;;;4.74;57.41;102057.31;4994982;28;45432;-58
2023/03/04 07:02:15;;;;;;;;;45.50;42.25;;;;;4.71;57.81;102065.78;4956662;28;45384;-59
2023/03/04 07:04:41;;;;;;;;;42.00;36.75;;;;;4.72;56.81;102060.19;4921349;28;45622;-58
2023/03/04 07:07:06;;;;;;;;;55.75;41.25;;;;;4.44;57.21;102021.91;4975158;28;45348;-59
2023/03/04 07:09:32;;;;;;;;;44.50;39.75;;;;;4.77;57.14;102061.63;4973502;28;45327;-60
2023/03/04 07:11:57;;;;;;;;;39.50;34.75;;;;;4.85;56.96;102059.91;4973687;28;45410;-58
2023/03/04 07:14:23;;;;;;;;;42.75;39.50;;;;;4.81;56.52;102063.91;4974740;28;46824;-58
2023/03/04 07:16:48;;;;;;;;;43.50;40.25;;;;;4.60;57.03;102036.84;4974834;28;45410;-54
2023/03/04 07:19:14;;;;;;;;;50.75;37.50;;;;;4.78;57.04;102049.72;4974879;28;45348;-57
2023/03/04 07:21:39;;;;;;;;;50.50;41.25;;;;;4.85;57.42;102061.75;4973603;28;45526;-57
2023/03/04 07:24:05;;;;;;;;;56.50;38.75;;;;;4.88;57.04;102069.66;4957040;28;46803;-57
2023/03/04 07:26:30;;;;;;;;;58.25;41.25;;;;;4.88;57.51;102075.97;4973429;28;45352;-56
2023/03/04 07:28:58;;;;;;;;;39.75;37.75;;;;;4.92;56.41;102075.69;4979738;28;45425;-59
2023/03/04 07:31:29;;;;;;;;;53.25;41.50;;;;;4.95;56.14;102070.81;4993146;28;45545;-58
2023/03/04 07:34:04;;;;;;;;;59.75;41.00;;;;;5.01;56.36;102074.81;5008740;28;46166;-59
2023/03/04 07:36:30;;;;;;;;;34.80;32.20;;;;;4.72;55.89;102043.88;4992483;28;45551;-58
2023/03/04 07:38:56;;;;;;;;;56.75;43.00;;;;;4.96;56.62;102082.56;4976325;28;45439;-59
2023/03/04 07:41:23;;;;;;;;;43.50;32.25;;;;;5.00;56.35;102076.69;4993176;28;45481;-58
2023/03/04 07:43:48;;;;;;;;;48.75;41.00;;;;;4.96;56.34;102080.69;4993808;28;46644;-59
2023/03/04 07:46:14;;;;;;;;;48.50;41.00;;;;;4.91;56.58;102072.09;4992817;28;45334;-59
2023/03/04 07:48:39;;;;;;;;;47.50;41.50;;;;;4.91;56.71;102084.84;4994507;28;45401;-58
2023/03/04 07:51:07;;;;;;;;;50.25;40.25;;;;;4.88;56.39;102084.13;4996263;28;45244;-56
2023/03/04 07:53:33;;;;;;;;;48.50;40.25;;;;;4.93;56.23;102082.84;4997220;28;45271;-56
2023/03/04 07:55:59;;;;;;;;;45.50;40.25;;;;;4.39;56.29;101988.88;4997384;28;45680;-57
2023/03/04 07:58:24;;;;;;;;;49.75;39.50;;;;;5.10;56.83;102089.44;4997765;28;45343;-56
2023/03/04 08:00:50;;;;;;;;;42.25;36.00;;;;;5.19;56.06;102098.59;4996228;28;45419;-57
2023/03/04 08:03:15;;;;;;;;;42.75;37.75;;;;;4.81;55.85;102024.97;4984824;28;45617;-57
2023/03/04 08:05:41;;;;;;;;;38.00;37.25;;;;;5.18;56.37;102073.25;4996078;28;45362;-57
2023/03/04 08:08:06;;;;;;;;;47.75;40.25;;;;;5.28;56.18;102092.28;4997244;28;45463;-60
2023/03/04 08:10:32;;;;;;;;;50.50;41.50;;;;;5.26;56.31;102077.97;4997645;28;45491;-60
2023/03/04 08:12:57;;;;;;;;;54.25;40.25;;;;;5.47;55.80;102096.88;4996426;28;46572;-60
2023/03/04 08:15:23;;;;;;;;;59.25;45.50;;;;;5.48;55.01;102095.00;4995907;28;45344;-60
2023/03/04 08:17:49;;;;;;;;;52.75;41.25;;;;;5.39;55.13;102085.88;4997378;28;45860;-60
2023/03/04 08:20:14;;;;;;;;;49.75;43.25;;;;;5.29;55.69;102058.66;4997539;28;45355;-57
2023/03/04 08:22:40;;;;;;;;;47.00;34.75;;;;;5.28;54.71;102062.34;4979229;28;45727;-52
2023/03/04 08:25:06;;;;;;;;;48.00;41.75;;;;;5.58;54.72;102093.16;4979106;28;45434;-55
2023/03/04 08:27:31;;;;;;;;;49.00;40.75;;;;;5.74;55.42;102114.34;4997186;28;45503;-59
2023/03/04 08:29:56;;;;;;;;;50.50;42.00;;;;;5.83;54.43;102108.00;4976032;28;45398;-59
2023/03/04 08:32:22;;;;;;;;;49.75;39.25;;;;;5.93;54.85;102107.97;4977226;28;46371;-57
2023/03/04 08:34:47;;;;;;;;;45.50;39.50;;;;;5.97;53.94;102103.97;4977147;28;45437;-58
2023/03/04 08:37:13;;;;;;;;;47.25;37.75;;;;;5.92;54.26;102099.97;4976913;28;45544;-57
2023/03/04 08:39:38;;;;;;;;;43.50;40.25;;;;;5.74;53.90;102059.84;4959921;28;45276;-59
2023/03/04 08:42:04;;;;;;;;;53.25;41.00;;;;;6.01;54.48;102104.53;4976734;28;46703;-59
2023/03/04 08:44:29;;;;;;;;;37.50;36.25;;;;;6.11;53.41;102115.44;4977002;28;45380;-60
2023/03/04 08:46:55;;;;;;;;;35.50;33.75;;;;;6.11;53.34;102109.97;4977119;28;45434;-60
2023/03/04 08:49:21;;;;;;;;;57.75;43.50;;;;;5.90;53.73;102074.72;4962061;28;46209;-60
2023/03/04 08:51:48;;;;;;;;;43.50;38.50;;;;;6.21;54.09;102116.25;4995397;28;45528;-60
2023/03/04 08:54:14;;;;;;;;;54.20;39.40;;;;;6.28;52.91;102115.63;4997078;28;45459;-59
2023/03/04 08:56:55;;;;;;;;;42.75;37.00;;;;;6.27;53.28;102119.38;4991078;28;45454;-59
2023/03/04 08:59:21;;;;;;;;;39.25;35.50;;;;;6.28;52.58;102102.00;5011089;28;45512;-60
2023/03/04 09:02:08;;;;;;;;;32.25;30.75;;;;;6.36;52.69;102119.34;4994027;28;46785;-61
2023/03/04 09:04:33;;;;;;;;;36.60;30.00;;;;;6.32;52.50;102119.78;4961010;28;45407;-61
2023/03/04 09:07:02;;;;;;;;;34.25;32.50;;;;;6.27;52.68;102120.25;5005067;28;45504;-61
2023/03/04 09:09:28;;;;;;;;;34.75;34.00;;;;;6.29;53.10;102125.56;5026628;28;45339;-62
2023/03/04 09:11:53;;;;;;;;;38.25;32.25;;;;;6.28;53.32;102116.50;4994362;28;45343;-60
2023/03/04 09:14:19;;;;;;;;;30.00;29.25;;;;;6.44;52.98;102125.91;4997338;28;45328;-60
2023/03/04 09:16:44;;;;;;;;;32.00;29.75;;;;;6.43;52.64;102121.47;5015429;28;45291;-60
2023/03/04 09:19:10;;;;;;;;;19.75;19.50;;;;;6.32;52.69;102130.69;5014965;28;45544;-54
2023/03/04 09:21:35;;;;;;;;;34.50;30.25;;;;;6.24;53.18;102134.16;4978358;28;47457;-59
2023/03/04 09:24:01;;;;;;;;;28.25;27.75;;;;;6.17;52.93;102124.88;5013296;28;45482;-60
2023/03/04 09:26:27;;;;;;;;;34.00;28.75;;;;;6.04;53.00;102139.69;4999971;28;45492;-54
2023/03/04 09:28:54;;;;;;;;;36.00;28.00;;;;;6.03;53.25;102137.97;4986147;28;45711;-58
2023/03/04 09:31:20;;;;;;;;;31.80;25.60;;;;;5.97;53.15;102130.34;5011590;28;45671;-58
2023/03/04 09:33:45;;;;;;;;;34.50;30.50;;;;;6.02;53.92;102140.81;4994902;28;45442;-54
2023/03/04 09:36:12;;;;;;;;;31.75;27.75;;;;;6.00;54.12;102135.50;5010208;28;45303;-58
2023/03/04 09:38:38;;;;;;;;;35.50;33.50;;;;;6.08;53.35;102134.78;5013293;28;45633;-59
2023/03/04 09:41:06;;;;;;;;;34.75;29.00;;;;;6.06;53.77;102124.06;4998743;28;45482;-59
2023/03/04 09:43:31;;;;;;;;;37.20;29.60;;;;;6.04;53.24;102139.69;5003793;28;45487;-59
2023/03/04 09:46:02;;;;;;;;;33.00;23.75;;;;;6.05;53.68;102138.69;4995155;28;45404;-55
2023/03/04 09:48:29;;;;;;;;;41.75;30.00;;;;;6.06;54.21;102137.69;4961361;28;45742;-56
2023/03/04 09:51:14;;;;;;;;;32.20;29.20;;;;;6.07;54.18;102144.84;4979632;28;46820;-59
2023/03/04 09:53:48;;;;;;;;;35.60;29.40;;;;;6.15;53.94;102143.25;4992422;28;45586;-59
2023/03/04 09:56:14;;;;;;;;;38.20;31.00;;;;;6.16;53.79;102139.50;5001409;28;45967;-56
2023/03/04 09:58:45;;;;;;;;;26.75;25.25;;;;;6.17;53.65;102139.38;4993062;28;45496;-59
2023/03/04 10:01:25;;;;;;;;;34.00;29.80;;;;;6.19;53.20;102134.63;4961067;28;46728;-55
2023/03/04 10:04:01;;;;;;;;;42.40;33.20;;;;;6.23;53.99;102132.44;5004758;28;45695;-58
2023/03/04 10:06:26;;;;;;;;;38.40;27.80;;;;;6.21;53.04;102138.06;4984205;28;45451;-57
2023/03/04 10:09:00;;;;;;;;;35.50;30.50;;;;;6.15;53.17;102132.34;4979387;28;45481;-55
2023/03/04 10:11:36;;;;;;;;;36.80;26.80;;;;;6.01;54.06;102114.56;4967501;28;47409;-54
2023/03/04 10:14:19;;;;;;;;;46.80;34.60;;;;;6.06;53.22;102112.28;4972406;28;45411;-53
2023/03/04 10:16:48;;;;;;;;;40.40;33.00;;;;;6.25;53.50;102141.38;5004443;28;45256;-56
2023/03/04 10:19:14;;;;;;;;;39.25;31.25;;;;;6.09;53.82;102128.34;4993261;28;45955;-58
2023/03/04 10:21:49;;;;;;;;;44.00;34.25;;;;;6.06;54.48;102145.88;4993037;28;45976;-57
2023/03/04 10:24:17;;;;;;;;;36.60;29.80;;;;;6.14;53.85;102134.19;4975118;28;45532;-57
2023/03/04 10:26:47;;;;;;;;;41.20;34.20;;;;;6.05;53.89;102108.72;4992779;28;45365;-56
2023/03/04 10:29:17;;;;;;;;;37.00;36.25;;;;;6.30;53.58;102130.00;4977176;28;45872;-60
2023/03/04 10:31:43;;;;;;;;;30.60;25.00;;;;;6.36;53.77;102129.41;4995157;28;45695;-57
2023/03/04 10:34:12;;;;;;;;;32.50;31.50;;;;;6.31;53.60;102129.00;4995678;28;45437;-56
2023/03/04 10:36:56;;;;;;;;;47.80;33.40;;;;;6.38;53.61;102121.94;4995870;28;45445;-59
2023/03/04 10:39:25;;;;;;;;;38.75;33.75;;;;;5.88;52.97;102033.13;4997099;28;45541;-60
2023/03/04 10:41:59;;;;;;;;;43.60;36.00;;;;;5.74;53.82;101989.00;5013150;28;46865;-60
2023/03/04 10:44:25;;;;;;;;;37.40;34.60;;;;;6.50;53.33;102119.84;4997291;28;45422;-59
2023/03/04 10:46:51;;;;;;;;;47.25;32.75;;;;;6.46;53.16;102111.13;4993622;28;45371;-58
2023/03/04 10:49:18;;;;;;;;;44.50;37.25;;;;;6.28;53.48;102080.19;4980063;28;48969;-59
2023/03/04 10:51:45;;;;;;;;;41.75;33.75;;;;;6.42;53.46;102107.00;4990181;28;45388;-58
2023/03/04 10:54:40;;;;;;;;;44.60;37.20;;;;;6.44;53.36;102109.53;4990892;28;46430;-60
2023/03/04 10:57:17;;;;;;;;;32.00;30.40;;;;;6.59;53.04;102105.31;4994641;28;45395;-56
2023/03/04 10:59:58;;;;;;;;;44.50;33.25;;;;;6.67;52.86;102098.25;4962020;28;45779;-56
2023/03/04 11:02:27;;;;;;;;;40.40;37.60;;;;;6.71;52.98;102100.50;4977067;28;45752;-56
2023/03/04 11:05:06;;;;;;;;;27.20;23.20;;;;;6.59;52.85;102097.13;4990781;28;45415;-59
2023/03/04 11:07:35;;;;;;;;;39.60;36.20;;;;;6.67;53.16;102100.97;4975606;28;45663;-59
2023/03/04 11:10:30;;;;;;;;;44.50;36.00;;;;;6.68;53.15;102105.41;4956743;28;45472;-61
2023/03/04 11:12:59;;;;;;;;;40.25;30.25;;;;;6.73;53.20;102093.00;4973257;28;45911;-59
2023/03/04 11:15:26;;;;;;;;;41.20;35.40;;;;;6.75;53.19;102095.59;4969473;28;45496;-61